aviador You're here:

PAFS Decoded Metar

NIKOLAI in AK, USA
Report Time2017-05-23 20:01:00
UTC Time2017-05-23 20:37:46
Flight Rules unknown UNKNOWN
Wind220° at 11 Gusting to 19 kt
W.Decomp.*RWY 22: 10.4 kt HW 3.6 kt LCW
W.Rank220° ranks 7
Current wind is above 220° avg. (7.3)
VisibilityN/A
Phenomena:N/A
Clouds:Few 030 Hf
Broken 036 Hf
Overcast 075 Hf
Expected CloudBase > 3,200 ft AGL from Temp-Dew spread
Ceiling3,600 ft
Temp08°C (ISA -6)
Dew Point00°C (57% RH)
AAT2.1°C
QNH1015 hPa
Density Alt-312 ft
Elevation413 ft
Report Wrong Elevation
Raw Report
PAFS 232001Z AUTO 22011G19KT FEW030 BKN036 OVC075 08/00 A2998=

Extra information for PAFS:More info

Metar Taf Metar & Taf Last 4 Metars F.Rules Stats Wind Profile Meteogram Temp Stats Airport Information Weather charts Add Link Nearby VenuesMetar ALERT Operation Metar Decoded Social comments

AIRNAV info for PAFS